createdAt,value
2023-04-27T00:00:11.288Z,96027.34
2023-04-27T00:02:39.305Z,96038.22
2023-04-27T00:05:07.945Z,96041.47
2023-04-27T00:07:37.112Z,96045.66
2023-04-27T00:10:05.194Z,96062.41
2023-04-27T00:12:32.976Z,96068.19
2023-04-27T00:15:00.880Z,96074.09
2023-04-27T00:17:28.728Z,96074.84
2023-04-27T00:19:56.629Z,96080.72
2023-04-27T00:22:24.395Z,96092.50
2023-04-27T00:24:53.598Z,96090.78
2023-04-27T00:27:21.373Z,96089.06
2023-04-27T00:29:49.171Z,96103.97
2023-04-27T00:32:16.995Z,96113.25
2023-04-27T00:34:44.813Z,96124.94
2023-04-27T00:37:13.951Z,96139.16
2023-04-27T00:39:42.072Z,96151.69
2023-04-27T00:42:14.120Z,96146.63
2023-04-27T00:44:42.187Z,96141.63
2023-04-27T00:47:11.955Z,96144.25
2023-04-27T00:49:40.790Z,96142.44
2023-04-27T00:52:08.617Z,96155.06
2023-04-27T00:54:36.440Z,96170.09
2023-04-27T00:57:05.115Z,96179.97
2023-04-27T00:59:34.263Z,96184.16
2023-04-27T01:02:02.726Z,96182.53
2023-04-27T01:04:32.358Z,96180.91
2023-04-27T01:07:02.795Z,96190.84
2023-04-27T01:09:32.684Z,96189.13
2023-04-27T01:12:00.495Z,96209.28
2023-04-27T01:14:28.408Z,96206.75
2023-04-27T01:16:58.245Z,96208.38
2023-04-27T01:19:26.136Z,96213.44
2023-04-27T01:21:53.937Z,96222.59
2023-04-27T01:24:23.178Z,96226.78
2023-04-27T01:26:53.231Z,96230.13
2023-04-27T01:29:21.312Z,96240.22
2023-04-27T01:31:49.149Z,96241.03
2023-04-27T01:34:17.006Z,96241.03
2023-04-27T01:36:48.710Z,96239.31
2023-04-27T01:39:16.850Z,96236.03
2023-04-27T01:41:45.984Z,96236.94
2023-04-27T01:44:13.739Z,96225.97
2023-04-27T01:46:41.765Z,96232.75
2023-04-27T01:49:09.729Z,96233.56
2023-04-27T01:51:37.512Z,96234.38
2023-04-27T01:54:05.400Z,96241.19
2023-04-27T01:56:33.288Z,96240.28
2023-04-27T01:59:02.447Z,96246.19
2023-04-27T02:01:31.365Z,96247.00
2023-04-27T02:03:59.370Z,96251.19
2023-04-27T02:06:27.733Z,96250.28
2023-04-27T02:08:55.540Z,96252.00
2023-04-27T02:11:23.301Z,96257.09
2023-04-27T02:13:51.822Z,96248.66
2023-04-27T02:16:21.069Z,96253.81
2023-04-27T02:18:49.172Z,96238.75
2023-04-27T02:21:17.600Z,96227.88
2023-04-27T02:23:45.403Z,96233.03
2023-04-27T02:26:18.744Z,96224.59
2023-04-27T02:28:47.556Z,96227.16
2023-04-27T02:31:16.254Z,96233.13
2023-04-27T02:33:45.509Z,96222.97
2023-04-27T02:36:13.321Z,96226.44
2023-04-27T02:38:41.182Z,96220.53
2023-04-27T02:41:11.253Z,96213.81
2023-04-27T02:43:39.146Z,96219.72
2023-04-27T02:46:07.746Z,96223.19
2023-04-27T02:48:35.690Z,96219.00
2023-04-27T02:51:07.166Z,96215.56
2023-04-27T02:53:34.977Z,96216.47
2023-04-27T02:56:02.799Z,96219.00
2023-04-27T02:58:30.922Z,96227.34
2023-04-27T03:00:58.897Z,96228.97
2023-04-27T03:03:26.880Z,96229.78
2023-04-27T03:05:54.770Z,96236.59
2023-04-27T03:08:23.991Z,96239.84
2023-04-27T03:10:51.787Z,96225.72
2023-04-27T03:13:19.567Z,96225.00
2023-04-27T03:15:47.347Z,96219.91
2023-04-27T03:18:15.165Z,96216.63
2023-04-27T03:20:43.087Z,96211.56
2023-04-27T03:23:12.038Z,96205.75
2023-04-27T03:25:41.236Z,96198.34
2023-04-27T03:28:09.256Z,96189.16
2023-04-27T03:30:37.033Z,96191.69
2023-04-27T03:33:04.935Z,96189.25
2023-04-27T03:35:33.066Z,96176.75
2023-04-27T03:38:00.852Z,96167.50
2023-04-27T03:40:28.895Z,96165.88
2023-04-27T03:42:59.177Z,96160.88
2023-04-27T03:45:27.667Z,96160.97
2023-04-27T03:47:55.686Z,96156.91
2023-04-27T03:50:23.557Z,96149.38
2023-04-27T03:52:51.527Z,96149.38
2023-04-27T03:55:20.004Z,96144.28
2023-04-27T03:57:47.880Z,96155.19
2023-04-27T04:00:18.339Z,96163.53
2023-04-27T04:02:47.884Z,96163.53
2023-04-27T04:05:16.039Z,96161.91
2023-04-27T04:07:44.322Z,96158.66
2023-04-27T04:10:13.144Z,96154.44
2023-04-27T04:12:41.092Z,96146.13
2023-04-27T04:15:09.428Z,96146.13
2023-04-27T04:17:39.325Z,96134.53
2023-04-27T04:20:10.635Z,96128.72
2023-04-27T04:22:39.101Z,96119.47
2023-04-27T04:25:08.698Z,96128.72
2023-04-27T04:27:37.413Z,96128.72
2023-04-27T04:30:06.888Z,96127.09
2023-04-27T04:32:37.922Z,96122.91
2023-04-27T04:35:09.622Z,96117.13
2023-04-27T04:37:37.689Z,96111.31
2023-04-27T04:40:09.395Z,96096.28
2023-04-27T04:42:38.193Z,96102.16
2023-04-27T04:45:08.704Z,96100.53
2023-04-27T04:47:37.018Z,96109.69
2023-04-27T04:50:05.326Z,96114.75
2023-04-27T04:52:34.526Z,96117.13
2023-04-27T04:55:02.310Z,96142.16
2023-04-27T04:57:31.280Z,96153.03
2023-04-27T04:59:59.258Z,96162.16
2023-04-27T05:02:27.171Z,96172.22
2023-04-27T05:04:56.990Z,96177.25
2023-04-27T05:07:25.140Z,96191.47
2023-04-27T05:09:54.476Z,96196.34
2023-04-27T05:12:22.345Z,96213.97
2023-04-27T05:14:50.175Z,96229.72
2023-04-27T05:17:17.956Z,96235.44
2023-04-27T05:19:45.954Z,96259.00
2023-04-27T05:22:13.760Z,96278.16
2023-04-27T05:24:41.778Z,96296.56
2023-04-27T05:27:11.191Z,96308.19
2023-04-27T05:29:38.973Z,96325.78
2023-04-27T05:32:07.254Z,96336.50
2023-04-27T05:34:35.154Z,96357.38
2023-04-27T05:37:03.143Z,96377.50
2023-04-27T05:39:30.950Z,96388.34
2023-04-27T05:41:58.875Z,96411.72
2023-04-27T05:44:29.339Z,96435.88
2023-04-27T05:46:57.113Z,96459.22
2023-04-27T05:49:24.930Z,96480.84
2023-04-27T05:51:53.646Z,96521.19
2023-04-27T05:54:21.445Z,96537.00
2023-04-27T05:56:50.344Z,96562.16
2023-04-27T05:59:18.150Z,96577.06
2023-04-27T06:01:47.286Z,96608.03
2023-04-27T06:04:15.325Z,96623.06
2023-04-27T06:06:44.787Z,96635.59
2023-04-27T06:09:12.876Z,96641.41
2023-04-27T06:11:40.766Z,96653.25
2023-04-27T06:14:08.626Z,96666.59
2023-04-27T06:16:36.475Z,96674.13
2023-04-27T06:19:05.633Z,96689.06
2023-04-27T06:21:34.081Z,96736.00
2023-04-27T06:24:01.989Z,96748.44
2023-04-27T06:26:29.802Z,96772.75
2023-04-27T06:28:57.542Z,96809.59
2023-04-27T06:31:25.398Z,96835.53
2023-04-27T06:33:53.182Z,96848.81
2023-04-27T06:36:22.374Z,96868.00
2023-04-27T06:38:50.131Z,96890.59
2023-04-27T06:41:18.006Z,96915.72
2023-04-27T06:43:45.833Z,96950.88
2023-04-27T06:46:13.621Z,97002.16
2023-04-27T06:48:41.454Z,97028.84
2023-04-27T06:51:09.317Z,97050.56
2023-04-27T06:53:38.470Z,97087.56
2023-04-27T06:56:07.176Z,97114.44
2023-04-27T06:58:34.983Z,97136.97
2023-04-27T07:01:04.005Z,97155.38
2023-04-27T07:03:32.030Z,97181.34
2023-04-27T07:05:59.880Z,97208.19
2023-04-27T07:08:27.772Z,97239.19
2023-04-27T07:10:57.201Z,97278.78
2023-04-27T07:13:25.175Z,97304.69
2023-04-27T07:15:57.502Z,97332.28
2023-04-27T07:18:27.989Z,97365.88
2023-04-27T07:20:56.226Z,97423.00
2023-04-27T07:23:24.016Z,97460.75
2023-04-27T07:25:51.956Z,97484.34
2023-04-27T07:28:21.349Z,97502.78
2023-04-27T07:30:49.245Z,97525.44
2023-04-27T07:33:17.070Z,97543.09
2023-04-27T07:35:44.924Z,97562.44
2023-04-27T07:38:12.795Z,97583.66
2023-04-27T07:40:40.943Z,97606.25
2023-04-27T07:43:10.430Z,97646.66
2023-04-27T07:45:41.491Z,97674.38
2023-04-27T07:48:09.770Z,97704.56
2023-04-27T07:50:37.919Z,97737.47
2023-04-27T07:53:05.846Z,97760.19
2023-04-27T07:55:34.073Z,97785.34
2023-04-27T07:58:01.978Z,97829.09
2023-04-27T08:00:29.788Z,97860.25
2023-04-27T08:02:59.157Z,97911.72
2023-04-27T08:05:27.429Z,97926.03
2023-04-27T08:07:56.301Z,97952.97
2023-04-27T08:10:25.001Z,97983.28
2023-04-27T08:12:52.829Z,98023.69
2023-04-27T08:15:21.512Z,98060.78
2023-04-27T08:17:49.422Z,98080.97
2023-04-27T08:20:18.619Z,98090.19
2023-04-27T08:22:46.415Z,98095.28
2023-04-27T08:25:14.191Z,98112.97
2023-04-27T08:27:42.166Z,98129.03
2023-04-27T08:30:10.956Z,98180.47
2023-04-27T08:32:39.004Z,98235.31
2023-04-27T08:35:07.805Z,98311.16
2023-04-27T08:37:37.050Z,98382.06
2023-04-27T08:40:08.005Z,98469.97
2023-04-27T08:42:35.931Z,98541.75
2023-04-27T08:45:04.496Z,98606.84
2023-04-27T08:47:42.551Z,98643.19
2023-04-27T08:50:11.987Z,98705.00
2023-04-27T08:52:41.174Z,98762.44
2023-04-27T08:55:09.863Z,98810.75
2023-04-27T08:57:37.657Z,98864.06
2023-04-27T09:00:12.704Z,98911.47
2023-04-27T09:02:46.306Z,98954.72
2023-04-27T09:05:18.436Z,98998.81
2023-04-27T09:07:58.970Z,99026.81
2023-04-27T09:10:29.110Z,99040.28
2023-04-27T09:12:58.357Z,99066.56
2023-04-27T09:15:26.451Z,99081.88
2023-04-27T09:17:56.020Z,99129.34
2023-04-27T09:20:24.374Z,99164.06
2023-04-27T09:22:55.077Z,99184.44
2023-04-27T09:25:28.936Z,99202.19
2023-04-27T09:27:58.158Z,99243.78
2023-04-27T09:30:26.381Z,99271.00
2023-04-27T09:32:56.085Z,99293.06
2023-04-27T09:35:26.115Z,99340.56
2023-04-27T09:37:55.556Z,99380.44
2023-04-27T09:40:27.997Z,99440.75
2023-04-27T09:42:58.292Z,99445.00
2023-04-27T09:45:26.698Z,99448.34
2023-04-27T09:47:54.587Z,99487.47
2023-04-27T09:50:22.906Z,99499.28
2023-04-27T09:52:51.156Z,99484.06
2023-04-27T09:55:29.542Z,99472.13
2023-04-27T09:58:13.813Z,99411.78
2023-04-27T10:00:58.394Z,99396.63
2023-04-27T10:03:34.123Z,99433.88
2023-04-27T10:06:58.996Z,99467.88
2023-04-27T10:09:30.449Z,99514.56
2023-04-27T10:11:58.566Z,99611.56
2023-04-27T10:14:29.392Z,99690.75
2023-04-27T10:16:58.868Z,99715.31
2023-04-27T10:19:27.081Z,99755.38
2023-04-27T10:21:57.905Z,99803.88
2023-04-27T10:24:37.101Z,99863.53
2023-04-27T10:27:06.910Z,99812.41
2023-04-27T10:29:41.817Z,99733.16
2023-04-27T10:32:11.330Z,99708.53
2023-04-27T10:34:39.914Z,99743.44
2023-04-27T10:37:09.326Z,99790.16
2023-04-27T10:39:48.114Z,99850.66
2023-04-27T10:42:29.157Z,99940.13
2023-04-27T10:44:59.552Z,99969.06
2023-04-27T10:47:38.075Z,99982.78
2023-04-27T10:50:07.332Z,100001.44
2023-04-27T10:52:35.498Z,100050.00
2023-04-27T10:55:14.865Z,100057.69
2023-04-27T10:57:50.897Z,100046.59
2023-04-27T11:00:25.732Z,100078.13
2023-04-27T11:02:54.077Z,100096.88
2023-04-27T11:05:24.736Z,100148.91
2023-04-27T11:07:52.960Z,100154.91
2023-04-27T11:10:21.135Z,100192.41
2023-04-27T11:12:48.993Z,100121.56
2023-04-27T11:15:16.794Z,100130.16
2023-04-27T11:17:46.096Z,100130.09
2023-04-27T11:20:16.459Z,100124.97
2023-04-27T11:22:46.586Z,100074.63
2023-04-27T11:25:14.454Z,99963.78
2023-04-27T11:27:42.803Z,99851.31
2023-04-27T11:30:21.166Z,99812.19
2023-04-27T11:32:51.542Z,99869.25
2023-04-27T11:35:19.406Z,99917.81
2023-04-27T11:37:58.128Z,100021.72
2023-04-27T11:40:27.212Z,100095.00
2023-04-27T11:42:59.131Z,100102.63
2023-04-27T11:45:28.864Z,100106.13
2023-04-27T11:47:59.954Z,100138.56
2023-04-27T11:50:28.793Z,100088.97
2023-04-27T11:53:01.472Z,100060.88
2023-04-27T11:55:29.395Z,100086.47
2023-04-27T11:57:59.280Z,100084.78
2023-04-27T12:00:27.338Z,100092.41
2023-04-27T12:02:55.577Z,100152.97
2023-04-27T12:05:25.080Z,100243.47
2023-04-27T12:07:53.599Z,100337.38
2023-04-27T12:10:21.398Z,100360.31
2023-04-27T12:12:49.271Z,100350.19
2023-04-27T12:15:17.183Z,100398.81
2023-04-27T12:17:45.105Z,100417.63
2023-04-27T12:20:14.617Z,100385.09
2023-04-27T12:22:43.839Z,100338.16
2023-04-27T12:25:11.629Z,100349.19
2023-04-27T12:27:39.404Z,100339.78
2023-04-27T12:30:08.281Z,100392.78
2023-04-27T12:32:36.095Z,100435.44
2023-04-27T12:35:03.880Z,100479.06
2023-04-27T12:37:31.786Z,100504.66
2023-04-27T12:40:01.549Z,100579.06
2023-04-27T12:42:29.461Z,100632.88
2023-04-27T12:44:57.411Z,100643.16
2023-04-27T12:47:46.069Z,100687.63
2023-04-27T12:50:13.730Z,100670.50
2023-04-27T12:52:41.589Z,100627.72
2023-04-27T12:55:24.857Z,100549.88
2023-04-27T12:57:59.085Z,100535.28
2023-04-27T13:00:27.653Z,100569.53
2023-04-27T13:02:56.622Z,100588.31
2023-04-27T13:05:24.811Z,100631.94
2023-04-27T13:07:52.826Z,100702.88
2023-04-27T13:10:22.042Z,100696.06
2023-04-27T13:12:49.950Z,100735.47
2023-04-27T13:15:18.126Z,100762.84
2023-04-27T13:17:46.095Z,100770.56
2023-04-27T13:20:15.217Z,100774.03
2023-04-27T13:22:43.475Z,100784.25
2023-04-27T13:25:11.292Z,100830.47
2023-04-27T13:27:40.426Z,100825.31
2023-04-27T13:30:09.712Z,100758.56
2023-04-27T13:32:37.678Z,100788.44
2023-04-27T13:35:06.062Z,100888.72
2023-04-27T13:37:33.917Z,101000.88
2023-04-27T13:40:01.730Z,101095.22
2023-04-27T13:42:30.060Z,101193.91
2023-04-27T13:44:59.192Z,101132.91
2023-04-27T13:47:29.212Z,101140.66
2023-04-27T13:49:57.012Z,101182.69
2023-04-27T13:52:24.855Z,101175.72
2023-04-27T13:54:52.658Z,101183.53
2023-04-27T13:57:20.463Z,101237.56
2023-04-27T13:59:48.316Z,101371.53
2023-04-27T14:02:17.460Z,101441.94
2023-04-27T14:04:45.354Z,101407.56
2023-04-27T14:07:13.311Z,101356.91
2023-04-27T14:09:41.110Z,101334.56
2023-04-27T14:12:09.239Z,101316.50
2023-04-27T14:14:37.511Z,101312.19
2023-04-27T14:17:05.609Z,101399.75
2023-04-27T14:19:35.083Z,101480.53
2023-04-27T14:22:04.536Z,101569.94
2023-04-27T14:24:32.646Z,101630.09
2023-04-27T14:27:00.850Z,101589.72
2023-04-27T14:29:28.624Z,101594.00
2023-04-27T14:31:57.638Z,101665.38
2023-04-27T14:34:25.508Z,101744.53
2023-04-27T14:36:54.720Z,101890.06
2023-04-27T14:39:22.616Z,101982.31
2023-04-27T14:41:50.726Z,102014.16
2023-04-27T14:44:18.520Z,102046.88
2023-04-27T14:46:46.478Z,102061.53
2023-04-27T14:49:14.424Z,102120.22
2023-04-27T14:51:43.687Z,102162.53
2023-04-27T14:54:13.334Z,102056.34
2023-04-27T14:56:41.136Z,102042.56
2023-04-27T14:59:08.952Z,102020.09
2023-04-27T15:01:37.497Z,101994.22
2023-04-27T15:04:06.327Z,101895.97
2023-04-27T15:06:34.249Z,101789.19
2023-04-27T15:09:02.039Z,101717.66
2023-04-27T15:11:31.282Z,101733.09
2023-04-27T15:13:59.030Z,101746.88
2023-04-27T15:16:26.929Z,101712.41
2023-04-27T15:18:54.781Z,101602.28
2023-04-27T15:21:23.366Z,101479.31
2023-04-27T15:23:51.149Z,101450.94
2023-04-27T15:26:18.944Z,101467.22
2023-04-27T15:28:48.113Z,101450.00
2023-04-27T15:31:15.942Z,101494.72
2023-04-27T15:33:43.779Z,101544.59
2023-04-27T15:36:11.704Z,101567.75
2023-04-27T15:38:39.503Z,101585.78
2023-04-27T15:41:07.336Z,101556.50
2023-04-27T15:43:35.151Z,101524.66
2023-04-27T15:46:05.842Z,101498.06
2023-04-27T15:48:34.100Z,101492.84
2023-04-27T15:51:02.700Z,101497.97
2023-04-27T15:53:30.799Z,101448.13
2023-04-27T15:55:58.614Z,101384.56
2023-04-27T15:58:26.708Z,101320.13
2023-04-27T16:00:54.544Z,101298.66
2023-04-27T16:03:23.794Z,101259.16
2023-04-27T16:05:52.470Z,101230.72
2023-04-27T16:08:20.483Z,101216.13
2023-04-27T16:10:48.300Z,101208.41
2023-04-27T16:13:16.099Z,101139.75
2023-04-27T16:15:43.908Z,101094.22
2023-04-27T16:18:11.738Z,101010.19
2023-04-27T16:20:41.255Z,100951.84
2023-04-27T16:23:09.096Z,100920.09
2023-04-27T16:25:36.870Z,100895.28
2023-04-27T16:28:04.693Z,100861.00
2023-04-27T16:30:32.609Z,100783.09
2023-04-27T16:33:00.574Z,100741.97
2023-04-27T16:35:30.108Z,100700.91
2023-04-27T16:37:59.272Z,100664.91
2023-04-27T16:40:27.114Z,100629.78
2023-04-27T16:42:54.966Z,100596.44
2023-04-27T16:45:22.748Z,100560.50
2023-04-27T16:47:50.684Z,100528.88
2023-04-27T16:50:18.507Z,100499.69
2023-04-27T16:52:46.374Z,100466.41
2023-04-27T16:55:15.543Z,100435.63
2023-04-27T16:57:43.374Z,100413.34
2023-04-27T17:00:13.024Z,100380.06
2023-04-27T17:02:43.677Z,100358.72
2023-04-27T17:05:12.102Z,100337.34
2023-04-27T17:07:40.052Z,100317.72
2023-04-27T17:10:09.443Z,100278.38
2023-04-27T17:12:38.920Z,100251.91
2023-04-27T17:15:08.229Z,100224.59
2023-04-27T17:17:36.548Z,100183.59
2023-04-27T17:20:06.353Z,100152.13
2023-04-27T17:22:34.144Z,100120.50
2023-04-27T17:25:02.045Z,100094.97
2023-04-27T17:27:29.837Z,100068.50
2023-04-27T17:29:59.035Z,100035.22
2023-04-27T17:32:26.949Z,100007.03
2023-04-27T17:34:54.796Z,99991.69
2023-04-27T17:37:22.541Z,99972.91
2023-04-27T17:39:51.646Z,99959.25
2023-04-27T17:42:20.050Z,99945.66
2023-04-27T17:44:47.971Z,99919.16
2023-04-27T17:47:18.912Z,99906.41
2023-04-27T17:49:46.753Z,99876.47
2023-04-27T17:52:14.534Z,99862.91
2023-04-27T17:54:43.013Z,99840.81
2023-04-27T17:57:10.883Z,99793.91
2023-04-27T17:59:38.700Z,99771.84
2023-04-27T18:02:06.600Z,99743.72
2023-04-27T18:04:36.563Z,99721.56
2023-04-27T18:07:04.452Z,99697.72
2023-04-27T18:09:33.104Z,99672.25
2023-04-27T18:12:02.026Z,99625.34
2023-04-27T18:14:30.202Z,99603.38
2023-04-27T18:16:58.005Z,99566.75
2023-04-27T18:19:26.168Z,99537.81
2023-04-27T18:21:55.537Z,99503.03
2023-04-27T18:24:23.329Z,99476.69
2023-04-27T18:26:51.151Z,99452.91
2023-04-27T18:29:18.983Z,99422.31
2023-04-27T18:31:46.829Z,99389.97
2023-04-27T18:34:14.729Z,99361.09
2023-04-27T18:36:42.541Z,99324.53
2023-04-27T18:39:11.752Z,99300.78
2023-04-27T18:41:39.555Z,99268.56
2023-04-27T18:44:07.525Z,99227.75
2023-04-27T18:46:35.718Z,99206.59
2023-04-27T18:49:03.573Z,99169.22
2023-04-27T18:51:32.043Z,99138.75
2023-04-27T18:53:59.934Z,99128.63
2023-04-27T18:56:29.104Z,99115.03
2023-04-27T18:58:56.918Z,99093.75
2023-04-27T19:01:26.710Z,99080.34
2023-04-27T19:03:55.366Z,99048.81
2023-04-27T19:06:23.383Z,99028.50
2023-04-27T19:08:51.222Z,99003.91
2023-04-27T19:11:22.174Z,98964.06
2023-04-27T19:13:51.774Z,98930.16
2023-04-27T19:16:19.655Z,98897.19
2023-04-27T19:18:47.514Z,98865.84
2023-04-27T19:21:15.334Z,98838.75
2023-04-27T19:23:45.046Z,98809.94
2023-04-27T19:26:14.047Z,98770.13
2023-04-27T19:28:42.212Z,98743.97
2023-04-27T19:31:11.485Z,98720.22
2023-04-27T19:33:46.639Z,98694.84
2023-04-27T19:36:15.064Z,98674.59
2023-04-27T19:38:42.833Z,98653.38
2023-04-27T19:41:10.732Z,98636.47
2023-04-27T19:43:38.499Z,98624.66
2023-04-27T19:46:06.482Z,98605.16
2023-04-27T19:48:36.425Z,98605.25
2023-04-27T19:51:08.839Z,98596.72
2023-04-27T19:53:36.690Z,98589.09
2023-04-27T19:56:04.517Z,98579.84
2023-04-27T19:58:32.371Z,98566.34
2023-04-27T20:01:00.171Z,98542.53
2023-04-27T20:03:28.098Z,98539.22
2023-04-27T20:05:57.666Z,98519.81
2023-04-27T20:08:25.863Z,98501.16
2023-04-27T20:10:54.049Z,98493.63
2023-04-27T20:13:21.869Z,98485.97
2023-04-27T20:15:49.738Z,98470.75
2023-04-27T20:18:17.573Z,98467.50
2023-04-27T20:20:45.422Z,98428.53
2023-04-27T20:23:14.596Z,98408.41
2023-04-27T20:25:42.428Z,98372.84
2023-04-27T20:28:10.258Z,98356.03
2023-04-27T20:30:38.030Z,98330.69
2023-04-27T20:33:06.012Z,98304.44
2023-04-27T20:35:33.820Z,98274.97
2023-04-27T20:38:01.903Z,98249.63
2023-04-27T20:40:31.130Z,98217.66
2023-04-27T20:42:58.997Z,98192.34
2023-04-27T20:45:27.064Z,98173.78
2023-04-27T20:47:54.996Z,98151.84
2023-04-27T20:50:22.924Z,98131.66
2023-04-27T20:52:50.866Z,98094.53
2023-04-27T20:55:18.891Z,98073.50
2023-04-27T20:57:48.146Z,98048.22
2023-04-27T21:00:18.544Z,98020.41
2023-04-27T21:02:48.092Z,97995.97
2023-04-27T21:05:16.025Z,97981.72
2023-04-27T21:07:43.905Z,97964.84
2023-04-27T21:10:12.746Z,97947.19
2023-04-27T21:12:40.583Z,97935.44
2023-04-27T21:15:10.895Z,97916.03
2023-04-27T21:17:38.780Z,97908.41
2023-04-27T21:20:09.745Z,97905.94
2023-04-27T21:22:37.640Z,97915.22
2023-04-27T21:25:05.926Z,97925.28
2023-04-27T21:27:33.868Z,97924.47
2023-04-27T21:30:01.713Z,97927.03
2023-04-27T21:32:30.893Z,97910.91
2023-04-27T21:34:58.784Z,97906.75
2023-04-27T21:37:26.900Z,97916.94
2023-04-27T21:39:54.700Z,97944.78
2023-04-27T21:42:22.521Z,97953.13
2023-04-27T21:44:50.400Z,97971.56
2023-04-27T21:47:18.335Z,97985.13
2023-04-27T21:49:47.521Z,97995.28
2023-04-27T21:52:15.351Z,97998.59
2023-04-27T21:54:43.271Z,98003.66
2023-04-27T21:57:11.252Z,98007.03
2023-04-27T21:59:39.010Z,98008.78
2023-04-27T22:06:35.943Z,98002.00
2023-04-27T22:09:04.765Z,97991.81
2023-04-27T22:11:34.412Z,98006.34
2023-04-27T22:14:02.195Z,97997.84
2023-04-27T22:16:30.434Z,97998.66
2023-04-27T22:18:58.475Z,98003.69
2023-04-27T22:21:27.261Z,98003.69
2023-04-27T22:23:56.574Z,98007.03
2023-04-27T22:26:24.526Z,98021.41
2023-04-27T22:28:52.452Z,98030.66
2023-04-27T22:31:20.484Z,98034.06
2023-04-27T22:33:48.339Z,98035.78
2023-04-27T22:36:16.145Z,98032.34
2023-04-27T22:38:43.918Z,98047.63
2023-04-27T22:41:13.046Z,98050.09
2023-04-27T22:43:40.882Z,98061.09
2023-04-27T22:46:08.758Z,98057.63
2023-04-27T22:48:36.856Z,98066.16
2023-04-27T22:51:09.150Z,98071.19
2023-04-27T22:53:37.369Z,98072.03
2023-04-27T22:56:06.063Z,98076.31
2023-04-27T22:58:36.045Z,98061.88
2023-04-27T23:01:04.491Z,98066.16
2023-04-27T23:03:32.542Z,98053.41
2023-04-27T23:06:00.833Z,98050.94
2023-04-27T23:08:28.942Z,98054.41
2023-04-27T23:10:56.845Z,98040.03
2023-04-27T23:13:26.737Z,98032.47
2023-04-27T23:15:56.003Z,98021.50
2023-04-27T23:18:23.857Z,98019.94
2023-04-27T23:20:54.463Z,98014.88
2023-04-27T23:23:22.551Z,98008.09
2023-04-27T23:25:50.589Z,98009.00
2023-04-27T23:28:18.429Z,97998.84
2023-04-27T23:30:53.739Z,97991.25
2023-04-27T23:33:24.214Z,97987.03
2023-04-27T23:35:53.330Z,97980.22
2023-04-27T23:38:21.875Z,97974.44
2023-04-27T23:40:49.648Z,97963.47
2023-04-27T23:43:17.404Z,97957.56
2023-04-27T23:45:49.800Z,97954.19
2023-04-27T23:48:17.712Z,97953.38
2023-04-27T23:50:47.085Z,97950.81
2023-04-27T23:53:14.883Z,97943.28
2023-04-27T23:55:42.648Z,97941.66
2023-04-27T23:58:10.412Z,97936.53
